Time;durP1;ratioP1;P1;durP2;ratioP2;P2;SDS_P1;SDS_P2;PMS_P1;PMS_P2;Temp;Humidity;BMP_temperature;BMP_pressure;BME280_temperature;BME280_humidity;BME280_pressure;Samples;Min_cycle;Max_cycle;Signal;HPM_P1;HPM_P2
2021/11/13 00:00:07;;;;;;;395.70;78.55;;;;;;;1.35;100.00;96033.03;1031958;28;20120;-49
2021/11/13 00:00:39;;;;;;;303.42;62.80;;;;;;;1.40;100.00;96038.06;1031869;28;20582;-49
2021/11/13 00:01:10;;;;;;;414.80;80.75;;;;;;;1.34;100.00;96039.94;1028715;28;20278;-48
2021/11/13 00:01:40;;;;;;;288.27;64.72;;;;;;;1.38;100.00;96038.13;1031971;28;20245;-48
2021/11/13 00:02:11;;;;;;;444.90;83.30;;;;;;;1.39;100.00;96041.53;1027820;28;20461;-51
2021/11/13 00:02:41;;;;;;;406.27;79.63;;;;;;;1.45;100.00;96042.19;1023769;28;20074;-49
2021/11/13 00:03:12;;;;;;;294.00;68.90;;;;;;;1.40;100.00;96032.91;1027792;28;20483;-47
2021/11/13 00:03:43;;;;;;;228.90;55.10;;;;;;;1.34;100.00;96039.13;1031962;28;20456;-50
2021/11/13 00:04:13;;;;;;;237.93;59.58;;;;;;;1.33;100.00;96032.25;1035932;28;20117;-48
2021/11/13 00:04:44;;;;;;;138.32;46.65;;;;;;;1.40;100.00;96040.66;1031883;28;20125;-47
2021/11/13 00:05:15;;;;;;;170.07;49.72;;;;;;;1.40;100.00;96035.50;1031612;28;20046;-48
2021/11/13 00:05:46;;;;;;;459.35;88.10;;;;;;;1.34;100.00;96037.38;1027744;28;20050;-50
2021/11/13 00:06:16;;;;;;;439.65;84.90;;;;;;;1.30;100.00;96035.78;1027698;28;20026;-49
2021/11/13 00:06:47;;;;;;;337.15;73.07;;;;;;;1.28;100.00;96037.56;1031734;28;20074;-47
2021/11/13 00:07:17;;;;;;;199.48;50.05;;;;;;;1.35;100.00;96033.91;1031575;28;20498;-50
2021/11/13 00:07:48;;;;;;;119.10;39.45;;;;;;;1.39;100.00;96042.41;1027691;28;20078;-49
2021/11/13 00:08:19;;;;;;;165.40;48.38;;;;;;;1.40;100.00;96038.91;1027971;28;20031;-49
2021/11/13 00:08:49;;;;;;;237.52;58.70;;;;;;;1.43;100.00;96041.41;1031933;28;20022;-50
2021/11/13 00:09:20;;;;;;;110.50;41.17;;;;;;;1.47;100.00;96036.97;1035984;28;20028;-48
2021/11/13 00:09:50;;;;;;;331.90;71.75;;;;;;;1.45;100.00;96044.78;1035763;28;20101;-48
2021/11/13 00:10:27;;;;;;;160.75;45.33;;;;;;;1.45;100.00;96043.94;1035854;28;20025;-48
2021/11/13 00:10:57;;;;;;;252.20;59.58;;;;;;;1.39;100.00;96037.22;1035880;28;20113;-50
2021/11/13 00:11:28;;;;;;;409.80;79.00;;;;;;;1.32;100.00;96043.47;1035584;28;20276;-49
2021/11/13 00:11:59;;;;;;;303.45;65.85;;;;;;;1.26;100.00;96034.19;1031760;28;20110;-49
2021/11/13 00:12:29;;;;;;;342.20;72.82;;;;;;;1.28;100.00;96041.91;1027566;28;20022;-51
2021/11/13 00:13:00;;;;;;;337.17;73.10;;;;;;;1.28;100.00;96040.16;1027631;28;20026;-47
2021/11/13 00:13:31;;;;;;;359.30;74.53;;;;;;;1.24;100.00;96038.56;1027912;28;20412;-48
2021/11/13 00:14:02;;;;;;;346.80;74.43;;;;;;;1.28;100.00;96037.56;1028207;28;20337;-49
2021/11/13 00:14:33;;;;;;;286.67;66.25;;;;;;;1.23;100.00;96036.03;1027981;28;20018;-47
2021/11/13 00:15:04;;;;;;;198.68;56.28;;;;;;;1.29;100.00;96038.41;1023835;29;20808;-50
2021/11/13 00:15:35;;;;;;;160.90;47.88;;;;;;;1.24;100.00;96040.28;1023638;29;20071;-46
2021/11/13 00:16:06;;;;;;;188.95;55.42;;;;;;;1.24;100.00;96036.00;1027763;28;20313;-51
2021/11/13 00:16:37;;;;;;;167.70;49.92;;;;;;;1.22;100.00;96037.78;1024228;28;20519;-48
2021/11/13 00:17:07;;;;;;;103.22;43.67;;;;;;;1.28;100.00;96040.16;1024012;28;20299;-48
2021/11/13 00:17:39;;;;;;;201.77;57.58;;;;;;;1.27;100.00;96038.44;1023988;28;20019;-49
2021/11/13 00:18:10;;;;;;;178.35;50.05;;;;;;;1.33;100.00;96035.69;1028427;28;20509;-48
2021/11/13 00:18:40;;;;;;;140.68;44.85;;;;;;;1.39;100.00;96038.94;1032046;28;20382;-48
2021/11/13 00:19:12;;;;;;;94.97;38.30;;;;;;;1.47;100.00;96042.97;1036278;28;20017;-48
2021/11/13 00:19:43;;;;;;;79.20;35.78;;;;;;;1.49;100.00;96037.78;1035685;28;20024;-48
2021/11/13 00:20:14;;;;;;;76.80;36.65;;;;;;;1.48;100.00;96033.47;1036194;28;20272;-50
2021/11/13 00:20:44;;;;;;;134.73;46.85;;;;;;;1.44;100.00;96037.06;1031748;28;20269;-48
2021/11/13 00:21:15;;;;;;;90.70;39.75;;;;;;;1.36;100.00;96030.41;1031989;28;20049;-47
2021/11/13 00:21:45;;;;;;;125.13;46.47;;;;;;;1.28;100.00;96037.56;1027596;28;20019;-48
2021/11/13 00:22:16;;;;;;;127.45;46.42;;;;;;;1.30;100.00;96034.94;1027941;28;20030;-49
2021/11/13 00:22:46;;;;;;;98.90;41.97;;;;;;;1.28;100.00;96035.00;1027517;28;20019;-48
2021/11/13 00:23:19;;;;;;;98.07;42.80;;;;;;;1.32;100.00;96034.00;1027899;28;20157;-49
2021/11/13 00:23:50;;;;;;;142.93;47.85;;;;;;;1.30;100.00;96032.38;1035701;28;20061;-48
2021/11/13 00:24:20;;;;;;;108.93;44.97;;;;;;;1.27;100.00;96035.88;1035734;28;20774;-48
2021/11/13 00:24:51;;;;;;;168.48;51.92;;;;;;;1.23;100.00;96033.44;1031809;28;20492;-48
2021/11/13 00:25:21;;;;;;;180.82;53.28;;;;;;;1.16;100.00;96032.78;1023750;29;20108;-48
2021/11/13 00:25:52;;;;;;;154.57;50.28;;;;;;;1.15;100.00;96037.13;1023573;28;20118;-51
2021/11/13 00:26:23;;;;;;;171.00;52.33;;;;;;;1.10;100.00;96038.16;1023282;28;20023;-50
2021/11/13 00:26:53;;;;;;;153.95;51.25;;;;;;;1.17;100.00;96031.91;1019752;29;20027;-48
2021/11/13 00:27:24;;;;;;;143.07;49.03;;;;;;;1.15;100.00;96033.69;1019782;29;20026;-48
2021/11/13 00:27:54;;;;;;;145.98;48.10;;;;;;;1.19;100.00;96042.19;1027648;28;20444;-49
2021/11/13 00:28:25;;;;;;;185.48;53.42;;;;;;;1.20;100.00;96034.38;1027533;28;20030;-48
2021/11/13 00:28:56;;;;;;;205.00;56.75;;;;;;;1.21;100.00;96032.66;1028272;28;20386;-52
2021/11/13 00:29:27;;;;;;;243.77;60.90;;;;;;;1.21;100.00;96035.25;1027882;28;20262;-48
2021/11/13 00:29:57;;;;;;;201.05;57.53;;;;;;;1.26;100.00;96029.03;1031916;28;20068;-50
2021/11/13 00:30:28;;;;;;;227.95;60.45;;;;;;;1.23;100.00;96033.44;1031563;28;20507;-48
2021/11/13 00:30:58;;;;;;;216.38;56.08;;;;;;;1.25;100.00;96029.91;1031861;28;20065;-47
2021/11/13 00:31:29;;;;;;;157.23;48.45;;;;;;;1.28;100.00;96026.41;1031857;28;20074;-47
2021/11/13 00:32:00;;;;;;;208.15;57.95;;;;;;;1.22;100.00;96030.03;1031690;28;20030;-48
2021/11/13 00:32:31;;;;;;;200.75;58.75;;;;;;;1.27;100.00;96027.28;1027349;28;20274;-47
2021/11/13 00:33:02;;;;;;;113.78;40.40;;;;;;;1.29;100.00;96031.50;1027863;28;20469;-48
2021/11/13 00:33:33;;;;;;;195.43;52.20;;;;;;;1.29;100.00;96021.19;1024092;28;20031;-48
2021/11/13 00:34:04;;;;;;;98.90;39.25;;;;;;;1.34;100.00;96027.03;1024209;28;20270;-47
2021/11/13 00:34:34;;;;;;;211.25;57.50;;;;;;;1.30;100.00;96029.78;1027545;28;20030;-49
2021/11/13 00:35:05;;;;;;;283.10;64.20;;;;;;;1.31;100.00;96027.16;1031629;28;20730;-49
2021/11/13 00:35:36;;;;;;;198.27;55.90;;;;;;;1.31;100.00;96024.59;1027696;28;20081;-48
2021/11/13 00:36:06;;;;;;;216.48;61.35;;;;;;;1.30;100.00;96027.22;1023890;28;20031;-50
2021/11/13 00:36:37;;;;;;;204.75;56.13;;;;;;;1.26;100.00;96031.63;1027855;28;20069;-47
2021/11/13 00:37:07;;;;;;;212.48;59.55;;;;;;;1.29;100.00;96030.66;1023755;28;20070;-49
2021/11/13 00:37:38;;;;;;;270.48;68.03;;;;;;;1.34;100.00;96027.03;1031603;28;20022;-47
2021/11/13 00:38:08;;;;;;;286.60;68.72;;;;;;;1.33;100.00;96025.38;1035845;28;20512;-47
2021/11/13 00:38:39;;;;;;;162.65;49.75;;;;;;;1.39;100.00;96031.19;1035742;28;20071;-48
2021/11/13 00:39:09;;;;;;;129.13;43.15;;;;;;;1.42;100.00;96025.94;1039862;28;20029;-48
2021/11/13 00:39:40;;;;;;;302.17;69.93;;;;;;;1.41;100.00;96026.84;1035809;28;20060;-47
2021/11/13 00:40:12;;;;;;;298.85;68.13;;;;;;;1.48;100.00;96034.34;1035883;28;20028;-50
2021/11/13 00:40:44;;;;;;;231.40;62.45;;;;;;;1.51;100.00;96033.41;1035624;28;20029;-49
2021/11/13 00:41:15;;;;;;;317.45;72.78;;;;;;;1.47;100.00;96031.81;1036396;28;20690;-48
2021/11/13 00:41:46;;;;;;;253.38;60.20;;;;;;;1.49;100.00;96033.44;1039897;28;20271;-48
2021/11/13 00:42:16;;;;;;;186.73;50.78;;;;;;;1.47;100.00;96029.22;1035633;28;20108;-49
2021/11/13 00:42:48;;;;;;;192.25;53.70;;;;;;;1.53;100.00;96035.03;1031334;28;20129;-50
2021/11/13 00:43:21;;;;;;;108.95;44.00;;;;;;;1.59;100.00;96035.72;1027575;28;20106;-48
2021/11/13 00:43:51;;;;;;;264.75;65.65;;;;;;;1.60;100.00;96027.94;1032284;28;20274;-49
2021/11/13 00:44:22;;;;;;;293.02;67.78;;;;;;;1.61;100.00;96032.19;1036444;28;20268;-48
2021/11/13 00:44:53;;;;;;;331.58;69.20;;;;;;;1.61;100.00;96029.59;1036086;28;20427;-49
2021/11/13 00:45:24;;;;;;;298.10;65.72;;;;;;;1.57;100.00;96029.75;1039874;28;20029;-50
2021/11/13 00:45:54;;;;;;;423.98;86.53;;;;;;;1.57;100.00;96033.19;1035844;28;20399;-48
2021/11/13 00:46:25;;;;;;;236.77;62.20;;;;;;;1.59;100.00;96033.13;1031822;28;20277;-51
2021/11/13 00:46:55;;;;;;;219.18;61.00;;;;;;;1.52;100.00;96029.91;1031608;28;20057;-49
2021/11/13 00:47:26;;;;;;;326.42;72.90;;;;;;;1.50;100.00;96032.56;1027697;28;20445;-48
2021/11/13 00:47:56;;;;;;;264.38;63.33;;;;;;;1.35;100.00;96026.16;1023635;28;20027;-49
2021/11/13 00:48:27;;;;;;;134.75;45.25;;;;;;;1.48;100.00;96029.19;1031661;28;20030;-51
2021/11/13 00:48:57;;;;;;;181.73;55.30;;;;;;;1.35;100.00;96033.91;1027546;28;20126;-49
2021/11/13 00:49:28;;;;;;;126.28;41.78;;;;;;;1.39;100.00;96031.19;1023571;29;20094;-48
2021/11/13 00:49:59;;;;;;;130.77;43.00;;;;;;;1.44;100.00;96029.31;1027633;28;20033;-48
2021/11/13 00:50:29;;;;;;;148.55;48.95;;;;;;;1.50;100.00;96031.69;1027683;28;20074;-50
2021/11/13 00:51:00;;;;;;;143.75;50.28;;;;;;;1.50;100.00;96032.56;1023642;28;20106;-48
2021/11/13 00:51:31;;;;;;;229.13;60.45;;;;;;;1.45;100.00;96031.03;1023515;29;20054;-49
2021/11/13 00:52:02;;;;;;;159.98;48.50;;;;;;;1.46;100.00;96035.28;1027962;28;20026;-48
2021/11/13 00:52:34;;;;;;;193.32;55.78;;;;;;;1.33;100.00;96033.13;1027818;28;20324;-49
2021/11/13 00:53:04;;;;;;;185.38;53.70;;;;;;;1.31;100.00;96029.75;1028025;28;20278;-48
2021/11/13 00:53:35;;;;;;;204.65;56.17;;;;;;;1.32;100.00;96035.75;1031684;28;20361;-48
2021/11/13 00:54:05;;;;;;;140.05;50.22;;;;;;;1.31;100.00;96037.50;1031864;28;20447;-51
2021/11/13 00:54:36;;;;;;;206.00;58.35;;;;;;;1.31;100.00;96039.19;1035845;28;20021;-49
2021/11/13 00:55:08;;;;;;;223.02;60.10;;;;;;;1.33;100.00;96032.25;1035721;28;20054;-48
2021/11/13 00:55:38;;;;;;;127.13;48.47;;;;;;;1.33;100.00;96034.84;1035692;28;20544;-47
2021/11/13 00:56:09;;;;;;;206.85;60.35;;;;;;;1.32;100.00;96034.00;1035462;28;20300;-47
2021/11/13 00:56:40;;;;;;;239.32;64.63;;;;;;;1.29;100.00;96039.25;1031849;28;20021;-50
2021/11/13 00:57:10;;;;;;;136.35;47.90;;;;;;;1.38;100.00;96034.69;1027801;28;20109;-48
2021/11/13 00:57:41;;;;;;;220.98;62.72;;;;;;;1.32;100.00;96039.16;1035861;28;20030;-48
2021/11/13 00:58:11;;;;;;;178.30;57.03;;;;;;;1.28;100.00;96040.16;1035836;28;20423;-49
2021/11/13 00:58:42;;;;;;;151.30;51.35;;;;;;;1.29;100.00;96047.00;1031710;28;20121;-49
2021/11/13 00:59:14;;;;;;;127.18;46.30;;;;;;;1.33;100.00;96040.00;1035538;28;20077;-50
2021/11/13 00:59:45;;;;;;;155.70;52.10;;;;;;;1.36;100.00;96035.56;1035763;28;20033;-47
2021/11/13 01:00:17;;;;;;;166.02;52.90;;;;;;;1.33;100.00;96042.56;1036402;28;20272;-48
2021/11/13 01:00:48;;;;;;;152.15;50.67;;;;;;;1.38;100.00;96037.28;1039774;28;20087;-51
2021/11/13 01:01:19;;;;;;;148.05;52.15;;;;;;;1.33;100.00;96035.69;1035530;28;20274;-49
2021/11/13 01:01:49;;;;;;;161.63;53.13;;;;;;;1.38;100.00;96037.28;1031700;28;20376;-49
2021/11/13 01:02:20;;;;;;;118.78;45.42;;;;;;;1.37;100.00;96031.28;1027713;28;20050;-49
2021/11/13 01:02:50;;;;;;;104.18;44.63;;;;;;;1.36;100.00;96040.75;1027451;28;20105;-47
2021/11/13 01:03:21;;;;;;;144.75;51.05;;;;;;;1.31;100.00;96041.78;1027583;28;20241;-49
2021/11/13 01:03:52;;;;;;;138.70;48.83;;;;;;;1.28;100.00;96036.75;1027722;28;20105;-51
2021/11/13 01:04:23;;;;;;;149.10;52.42;;;;;;;1.31;100.00;96040.06;1031716;28;20021;-48
2021/11/13 01:04:54;;;;;;;154.32;52.63;;;;;;;1.29;100.00;96039.25;1031911;28;20052;-52
2021/11/13 01:05:24;;;;;;;84.32;38.65;;;;;;;1.33;100.00;96033.13;1031765;28;20266;-49
2021/11/13 01:05:55;;;;;;;100.22;43.13;;;;;;;1.38;100.00;96027.78;1028749;28;20109;-48
2021/11/13 01:06:26;;;;;;;122.57;46.33;;;;;;;1.40;100.00;96041.47;1027556;28;20046;-49
2021/11/13 01:06:57;;;;;;;184.80;56.17;;;;;;;1.33;100.00;96033.13;1027802;28;20280;-49
2021/11/13 01:07:27;;;;;;;155.43;54.38;;;;;;;1.36;100.00;96030.41;1031581;28;20046;-48
2021/11/13 01:07:58;;;;;;;140.63;52.50;;;;;;;1.35;100.00;96030.47;1035533;28;20068;-50
2021/11/13 01:08:28;;;;;;;123.35;49.10;;;;;;;1.35;100.00;96033.03;1035559;28;20079;-49
2021/11/13 01:08:59;;;;;;;131.68;48.80;;;;;;;1.29;100.00;96020.34;1031973;28;20480;-49
2021/11/13 01:09:30;;;;;;;136.18;51.25;;;;;;;1.35;100.00;96026.16;1031655;28;20045;-48
2021/11/13 01:10:00;;;;;;;139.57;51.88;;;;;;;1.32;100.00;96034.00;1031645;28;20033;-50
2021/11/13 01:10:31;;;;;;;125.03;49.38;;;;;;;1.39;100.00;96034.66;1031532;28;20026;-49
2021/11/13 01:11:01;;;;;;;108.82;44.10;;;;;;;1.39;100.00;96029.50;1027778;28;20109;-49
2021/11/13 01:11:32;;;;;;;124.85;48.20;;;;;;;1.38;100.00;96027.78;1031483;28;20522;-51
2021/11/13 01:12:03;;;;;;;106.43;43.53;;;;;;;1.40;100.00;96032.91;1031792;28;20160;-48
2021/11/13 01:12:33;;;;;;;81.20;41.40;;;;;;;1.39;100.00;96034.66;1031647;28;20476;-49
2021/11/13 01:13:04;;;;;;;124.20;47.78;;;;;;;1.40;100.00;96033.75;1035487;28;20041;-50
2021/11/13 01:13:35;;;;;;;127.43;49.03;;;;;;;1.39;100.00;96033.78;1031596;28;20472;-48
2021/11/13 01:14:05;;;;;;;93.07;42.10;;;;;;;1.38;100.00;96034.69;1035631;28;20041;-49
2021/11/13 01:14:40;;;;;;;87.78;40.35;;;;;;;1.42;100.00;96031.13;1035545;28;20487;-48
2021/11/13 01:15:11;;;;;;;79.18;40.10;;;;;;;1.40;100.00;96025.16;1031045;28;20104;-49
2021/11/13 01:15:41;;;;;;;120.53;46.60;;;;;;;1.36;100.00;96022.66;1025013;28;20796;-47
2021/11/13 01:16:12;;;;;;;139.98;50.15;;;;;;;1.31;100.00;96021.13;1028891;28;20452;-48
2021/11/13 01:16:43;;;;;;;89.60;39.80;;;;;;;1.37;100.00;96015.78;1035739;28;20434;-48
2021/11/13 01:17:13;;;;;;;114.35;46.78;;;;;;;1.40;100.00;96014.84;1031704;28;20452;-50
2021/11/13 01:17:44;;;;;;;79.70;39.72;;;;;;;1.35;100.00;96004.66;1031686;28;20485;-48
2021/11/13 01:18:15;;;;;;;138.65;51.05;;;;;;;1.36;100.00;96016.66;1031624;28;20157;-50
2021/11/13 01:18:45;;;;;;;149.68;52.17;;;;;;;1.34;100.00;96015.88;1031758;28;20018;-48
2021/11/13 01:19:16;;;;;;;132.07;49.90;;;;;;;1.45;100.00;96018.13;1031690;28;20076;-50
2021/11/13 01:19:47;;;;;;;183.38;55.63;;;;;;;1.40;100.00;96018.25;1027593;28;20054;-48
2021/11/13 01:20:18;;;;;;;182.23;56.38;;;;;;;1.33;100.00;96012.47;1027492;28;20033;-48
2021/11/13 01:20:49;;;;;;;145.93;53.60;;;;;;;1.32;100.00;96017.66;1027567;28;20090;-51
2021/11/13 01:21:20;;;;;;;146.48;48.38;;;;;;;1.19;100.00;96013.81;1027560;28;20336;-48
2021/11/13 01:21:51;;;;;;;143.50;51.28;;;;;;;1.27;100.00;96012.66;1028506;28;20274;-49
2021/11/13 01:22:22;;;;;;;138.70;49.67;;;;;;;1.28;100.00;96014.34;1031696;28;20309;-48
2021/11/13 01:22:52;;;;;;;119.72;48.25;;;;;;;1.34;100.00;96019.28;1031470;28;20030;-49
2021/11/13 01:23:23;;;;;;;169.98;53.05;;;;;;;1.33;100.00;96012.47;1031542;28;20176;-49
2021/11/13 01:23:53;;;;;;;216.43;61.88;;;;;;;1.40;100.00;96007.94;1027938;28;20026;-49
2021/11/13 01:24:24;;;;;;;165.05;54.22;;;;;;;1.46;100.00;96012.88;1031547;28;20621;-48
2021/11/13 01:24:55;;;;;;;147.80;51.95;;;;;;;1.44;100.00;96011.25;1031658;28;20030;-51
2021/11/13 01:25:26;;;;;;;126.93;47.78;;;;;;;1.42;100.00;96013.03;1035947;28;20025;-48
2021/11/13 01:25:57;;;;;;;179.43;56.35;;;;;;;1.43;100.00;96017.31;1035833;28;20030;-49
2021/11/13 01:26:27;;;;;;;78.70;38.20;;;;;;;1.48;100.00;96011.13;1039844;28;20271;-48
2021/11/13 01:26:58;;;;;;;84.97;39.17;;;;;;;1.49;100.00;96019.69;1035669;28;20051;-48
2021/11/13 01:27:29;;;;;;;166.73;54.22;;;;;;;1.46;100.00;96015.47;1027775;28;20023;-50
2021/11/13 01:28:00;;;;;;;158.18;53.53;;;;;;;1.43;100.00;96018.16;1027541;28;20021;-50
2021/11/13 01:28:31;;;;;;;121.07;45.88;;;;;;;1.41;100.00;96016.50;1027359;28;20026;-51
2021/11/13 01:29:01;;;;;;;169.48;52.92;;;;;;;1.42;100.00;96018.22;1027886;28;20803;-50
2021/11/13 01:29:32;;;;;;;194.18;57.17;;;;;;;1.42;100.00;96013.03;1032190;28;20088;-50
2021/11/13 01:30:04;;;;;;;210.57;60.17;;;;;;;1.41;100.00;96019.09;1039933;28;20152;-48
2021/11/13 01:30:34;;;;;;;168.32;55.38;;;;;;;1.34;100.00;96014.13;1039872;28;20028;-49
2021/11/13 01:31:07;;;;;;;165.18;52.60;;;;;;;1.44;100.00;96019.00;1039575;28;20275;-51
2021/11/13 01:31:37;;;;;;;89.68;35.35;;;;;;;1.57;100.00;96022.84;1039820;28;20041;-50
2021/11/13 01:32:08;;;;;;;70.47;35.05;;;;;;;1.59;100.00;96023.63;1035988;28;20291;-49
2021/11/13 01:32:38;;;;;;;134.93;48.35;;;;;;;1.61;100.00;96019.25;1031689;28;20053;-49
2021/11/13 01:33:09;;;;;;;84.47;41.55;;;;;;;1.67;100.00;96023.38;1027293;28;20072;-49
2021/11/13 01:33:39;;;;;;;123.07;46.30;;;;;;;1.55;100.00;96027.22;1027519;28;20066;-49
2021/11/13 01:34:10;;;;;;;81.97;36.50;;;;;;;1.52;100.00;96022.16;1031668;28;20436;-50
2021/11/13 01:34:40;;;;;;;156.55;51.50;;;;;;;1.45;100.00;96025.88;1031722;28;20502;-47
2021/11/13 01:35:11;;;;;;;153.65;47.67;;;;;;;1.38;100.00;96024.38;1035562;28;20025;-50
2021/11/13 01:35:42;;;;;;;135.57;45.97;;;;;;;1.32;100.00;96021.09;1031665;28;20045;-50
2021/11/13 01:36:12;;;;;;;160.75;53.35;;;;;;;1.30;100.00;96022.88;1035621;28;20029;-49
2021/11/13 01:36:43;;;;;;;137.23;48.58;;;;;;;1.30;100.00;96025.47;1031674;28;20018;-48
2021/11/13 01:37:13;;;;;;;141.55;47.80;;;;;;;1.29;100.00;96023.75;1031434;28;20030;-49
2021/11/13 01:37:45;;;;;;;121.15;43.00;;;;;;;1.29;100.00;96028.91;1031880;28;20415;-49
2021/11/13 01:38:16;;;;;;;105.57;41.38;;;;;;;1.34;100.00;96021.88;1035661;28;20419;-51
2021/11/13 01:38:47;;;;;;;101.13;36.92;;;;;;;1.43;100.00;96022.50;1036624;28;20691;-47
2021/11/13 01:39:19;;;;;;;88.07;38.97;;;;;;;1.44;100.00;96030.16;1040569;28;20264;-51
2021/11/13 01:39:49;;;;;;;110.15;46.50;;;;;;;1.42;100.00;96020.78;1036335;28;20364;-51
2021/11/13 01:40:21;;;;;;;162.02;50.60;;;;;;;1.38;100.00;96021.78;1036472;28;20248;-49
2021/11/13 01:40:52;;;;;;;168.40;53.88;;;;;;;1.32;100.00;96025.41;1028737;28;20031;-50
2021/11/13 01:41:24;;;;;;;127.22;47.08;;;;;;;1.34;100.00;96026.22;1033180;28;20281;-47
2021/11/13 01:41:55;;;;;;;88.32;41.80;;;;;;;1.28;100.00;96027.25;1036435;28;20109;-49
2021/11/13 01:42:29;;;;;;;199.40;61.15;;;;;;;1.33;100.00;96027.94;1037085;28;20365;-48
2021/11/13 01:42:59;;;;;;;182.68;57.47;;;;;;;1.31;100.00;96023.72;1040062;28;20021;-50
2021/11/13 01:43:32;;;;;;;99.88;42.72;;;;;;;1.35;100.00;96021.00;1040482;28;20270;-49
2021/11/13 01:44:05;;;;;;;154.93;54.63;;;;;;;1.35;100.00;96018.41;1037152;28;20121;-48
2021/11/13 01:44:36;;;;;;;157.77;53.25;;;;;;;1.36;100.00;96019.25;1040461;28;20294;-49
2021/11/13 01:45:07;;;;;;;77.80;38.22;;;;;;;1.39;100.00;96020.88;1036321;28;20272;-50
2021/11/13 01:45:38;;;;;;;79.57;38.05;;;;;;;1.38;100.00;96020.03;1032848;28;20027;-49
2021/11/13 01:46:10;;;;;;;66.63;34.63;;;;;;;1.44;100.00;96016.41;1032565;28;20408;-48
2021/11/13 01:46:40;;;;;;;126.38;49.35;;;;;;;1.37;100.00;96020.97;1036364;28;20470;-48
2021/11/13 01:47:11;;;;;;;151.82;49.90;;;;;;;1.38;100.00;96021.78;1036962;28;20249;-49
2021/11/13 01:47:42;;;;;;;119.95;43.70;;;;;;;1.39;100.00;96018.28;1040727;28;20013;-49
2021/11/13 01:48:12;;;;;;;151.50;52.10;;;;;;;1.23;100.00;96023.97;1044675;28;20013;-49
2021/11/13 01:48:43;;;;;;;166.18;54.13;;;;;;;1.26;100.00;96025.59;1036305;28;20758;-48
2021/11/13 01:49:14;;;;;;;156.98;51.90;;;;;;;1.26;100.00;96020.44;1032152;28;20046;-49
2021/11/13 01:49:44;;;;;;;142.07;49.13;;;;;;;1.21;100.00;96019.75;1032308;28;20022;-49
2021/11/13 01:50:17;;;;;;;130.57;48.55;;;;;;;1.23;100.00;96016.22;1032372;28;20132;-49
2021/11/13 01:50:48;;;;;;;182.90;59.00;;;;;;;1.28;100.00;96019.50;1024320;29;20034;-49
2021/11/13 01:51:25;;;;;;;114.18;44.85;;;;;;;1.37;100.00;96010.63;1028276;28;20294;-48
2021/11/13 01:51:55;;;;;;;165.75;54.92;;;;;;;1.32;100.00;96022.84;1040328;28;20053;-49
2021/11/13 01:52:26;;;;;;;181.20;57.72;;;;;;;1.27;100.00;96019.56;1040574;28;20256;-48
2021/11/13 01:52:56;;;;;;;200.98;62.22;;;;;;;1.30;100.00;96017.72;1036034;28;20100;-48
2021/11/13 01:53:28;;;;;;;237.00;66.70;;;;;;;1.31;100.00;96023.72;1028311;28;20025;-49
2021/11/13 01:54:04;;;;;;;215.98;62.20;;;;;;;1.24;100.00;96020.50;1032166;28;20022;-49
2021/11/13 01:54:36;;;;;;;229.27;64.18;;;;;;;1.20;100.00;96016.31;1032171;28;20269;-48
2021/11/13 01:55:08;;;;;;;210.18;61.55;;;;;;;1.25;100.00;96019.59;1032415;28;20281;-49
2021/11/13 01:55:39;;;;;;;228.88;64.68;;;;;;;1.27;100.00;96014.38;1030735;28;20357;-50
2021/11/13 01:56:16;;;;;;;200.75;61.38;;;;;;;1.27;100.00;96010.06;1037579;28;20351;-48
2021/11/13 01:56:50;;;;;;;219.70;61.30;;;;;;;1.35;100.00;96015.84;1036308;28;20296;-47
2021/11/13 01:57:22;;;;;;;224.27;63.08;;;;;;;1.32;100.00;96018.50;1033833;28;20280;-50
2021/11/13 01:57:53;;;;;;;244.10;68.38;;;;;;;1.37;100.00;96015.78;1029823;28;20293;-48
2021/11/13 01:58:24;;;;;;;209.23;60.60;;;;;;;1.32;100.00;96013.34;1025125;28;20297;-48
2021/11/13 01:58:58;;;;;;;186.45;58.20;;;;;;;1.34;100.00;96016.72;1028788;28;20114;-48
2021/11/13 01:59:29;;;;;;;119.10;44.55;;;;;;;1.37;100.00;96015.78;1033860;28;20261;-48
2021/11/13 01:59:59;;;;;;;237.35;66.57;;;;;;;1.34;100.00;96008.13;1036823;28;20272;-48
2021/11/13 02:00:32;;;;;;;265.67;69.50;;;;;;;1.38;100.00;96014.03;1036357;28;20030;-48
2021/11/13 02:01:02;;;;;;;110.47;42.85;;;;;;;1.40;100.00;96013.09;1036281;28;20022;-50
2021/11/13 02:01:34;;;;;;;220.75;63.63;;;;;;;1.36;100.00;96014.94;1032258;28;20261;-51
2021/11/13 02:02:05;;;;;;;285.30;69.88;;;;;;;1.31;100.00;96013.38;1036228;28;20157;-50
2021/11/13 02:02:35;;;;;;;212.63;58.58;;;;;;;1.30;100.00;96014.31;1032025;28;20367;-48
2021/11/13 02:03:07;;;;;;;102.88;40.67;;;;;;;1.36;100.00;96011.50;1032070;28;20026;-48
2021/11/13 02:03:37;;;;;;;146.68;48.47;;;;;;;1.42;100.00;96005.31;1032237;28;20472;-49
2021/11/13 02:04:08;;;;;;;316.88;72.50;;;;;;;1.38;100.00;96001.97;1032301;28;20352;-49
2021/11/13 02:04:39;;;;;;;297.75;71.00;;;;;;;1.27;100.00;96006.66;1036570;28;20105;-51
2021/11/13 02:05:09;;;;;;;243.27;63.92;;;;;;;1.32;100.00;96008.19;1036275;28;20079;-49
2021/11/13 02:05:40;;;;;;;145.82;47.95;;;;;;;1.33;100.00;96009.88;1032418;28;20053;-47
2021/11/13 02:06:12;;;;;;;242.10;64.35;;;;;;;1.34;100.00;96011.56;1028762;28;20047;-48
2021/11/13 02:06:42;;;;;;;209.98;56.95;;;;;;;1.36;100.00;96007.19;1028870;28;20019;-50
2021/11/13 02:07:13;;;;;;;224.27;61.17;;;;;;;1.39;100.00;96007.97;1036681;28;20809;-48
2021/11/13 02:07:44;;;;;;;142.93;47.95;;;;;;;1.44;100.00;96006.09;1032509;28;20026;-49
2021/11/13 02:08:16;;;;;;;105.93;42.03;;;;;;;1.52;100.00;96004.09;1032178;28;20022;-48
2021/11/13 02:08:46;;;;;;;105.13;43.90;;;;;;;1.52;100.00;96006.66;1028401;28;20500;-48
2021/11/13 02:09:17;;;;;;;130.52;47.83;;;;;;;1.52;100.00;96002.38;1032835;28;20281;-50
2021/11/13 02:09:47;;;;;;;270.05;64.20;;;;;;;1.47;100.00;96008.56;1024238;28;20037;-47
2021/11/13 02:10:18;;;;;;;315.05;70.10;;;;;;;1.48;100.00;96002.50;1035993;28;20125;-49
2021/11/13 02:10:49;;;;;;;315.95;72.80;;;;;;;1.50;100.00;96009.31;1036236;28;20395;-49
2021/11/13 02:11:22;;;;;;;292.63;68.07;;;;;;;1.40;100.00;96002.75;1032224;28;20268;-49
2021/11/13 02:11:54;;;;;;;202.93;56.42;;;;;;;1.47;100.00;96000.84;1032145;28;20053;-49
2021/11/13 02:12:25;;;;;;;254.18;67.03;;;;;;;1.48;100.00;96007.66;1032769;28;20811;-50
2021/11/13 02:12:56;;;;;;;187.48;52.90;;;;;;;1.51;100.00;96010.16;1031898;28;20281;-50
2021/11/13 02:13:26;;;;;;;143.32;46.58;;;;;;;1.51;100.00;96008.41;1032731;28;20061;-49
2021/11/13 02:13:57;;;;;;;139.77;45.60;;;;;;;1.56;100.00;96005.69;1036387;28;20071;-49
2021/11/13 02:14:28;;;;;;;279.45;66.68;;;;;;;1.40;100.00;96007.09;1032672;28;20034;-49
2021/11/13 02:14:59;;;;;;;150.80;46.30;;;;;;;1.48;100.00;96007.66;1044584;28;20052;-49
2021/11/13 02:15:29;;;;;;;310.77;68.93;;;;;;;1.42;100.00;96003.56;1036223;28;20269;-49
2021/11/13 02:16:00;;;;;;;293.10;67.60;;;;;;;1.45;100.00;96008.63;1028174;28;20027;-48
2021/11/13 02:16:30;;;;;;;302.10;68.07;;;;;;;1.44;100.00;96012.09;1032291;28;20452;-49
2021/11/13 02:17:01;;;;;;;134.02;41.70;;;;;;;1.49;100.00;96005.03;1036380;28;20025;-50
2021/11/13 02:17:32;;;;;;;262.13;63.95;;;;;;;1.51;100.00;96007.56;1032314;28;20347;-49
2021/11/13 02:18:03;;;;;;;255.85;58.15;;;;;;;1.46;100.00;96014.63;1028166;28;20041;-48
2021/11/13 02:18:34;;;;;;;482.50;86.05;;;;;;;1.46;100.00;96009.47;1032247;28;20476;-49
2021/11/13 02:19:05;;;;;;;272.77;56.60;;;;;;;1.45;100.00;96005.22;1032529;28;20022;-47
2021/11/13 02:19:36;;;;;;;377.45;77.75;;;;;;;1.39;100.00;96014.00;1032666;28;20706;-48
2021/11/13 02:20:17;;;;;;;281.02;60.17;;;;;;;1.38;100.00;96011.47;1032532;28;20269;-49
2021/11/13 02:20:47;;;;;;;260.17;57.75;;;;;;;1.38;100.00;96012.31;1028032;28;20026;-48